createdAt,value
2023-04-17T00:00:50.313Z,10.70
2023-04-17T00:03:38.775Z,10.70
2023-04-17T00:06:27.308Z,10.60
2023-04-17T00:09:14.843Z,10.60
2023-04-17T00:12:02.439Z,10.50
2023-04-17T00:14:49.948Z,10.50
2023-04-17T00:17:37.458Z,10.70
2023-04-17T00:20:24.935Z,10.70
2023-04-17T00:23:12.429Z,10.70
2023-04-17T00:25:59.822Z,10.70
2023-04-17T00:28:48.944Z,10.60
2023-04-17T00:31:36.389Z,10.50
2023-04-17T00:34:23.919Z,10.50
2023-04-17T00:37:11.936Z,10.60
2023-04-17T00:39:59.343Z,10.60
2023-04-17T00:42:52.858Z,10.70
2023-04-17T00:45:41.731Z,10.70
2023-04-17T00:48:29.298Z,10.60
2023-04-17T00:51:16.910Z,10.50
2023-04-17T00:54:05.081Z,10.60
2023-04-17T00:56:56.576Z,10.60
2023-04-17T00:59:45.216Z,10.60
2023-04-17T01:02:32.724Z,10.40
2023-04-17T01:05:20.462Z,10.30
2023-04-17T01:08:08.267Z,10.30
2023-04-17T01:10:55.793Z,10.30
2023-04-17T01:13:51.049Z,10.30
2023-04-17T01:16:40.207Z,10.20
2023-04-17T01:19:28.676Z,10.20
2023-04-17T01:22:16.823Z,10.30
2023-04-17T01:25:05.782Z,10.30
2023-04-17T01:27:53.445Z,10.30
2023-04-17T01:30:40.947Z,10.30
2023-04-17T01:33:28.438Z,10.30
2023-04-17T01:36:16.544Z,10.40
2023-04-17T01:39:04.232Z,10.30
2023-04-17T01:41:51.675Z,10.50
2023-04-17T01:44:39.158Z,10.50
2023-04-17T01:47:26.658Z,10.40
2023-04-17T01:50:14.302Z,10.40
2023-04-17T01:53:01.731Z,10.20
2023-04-17T01:55:49.096Z,10.30
2023-04-17T01:58:36.596Z,10.30
2023-04-17T02:01:24.362Z,10.40
2023-04-17T02:04:11.911Z,10.40
2023-04-17T02:06:59.449Z,10.40
2023-04-17T02:09:47.079Z,10.40
2023-04-17T02:12:34.474Z,10.30
2023-04-17T02:15:21.977Z,10.10
2023-04-17T02:18:09.820Z,10.00
2023-04-17T02:20:57.299Z,10.00
2023-04-17T02:23:44.699Z,10.00
2023-04-17T02:26:32.153Z,9.90
2023-04-17T02:29:19.599Z,9.90
2023-04-17T02:32:07.055Z,9.80
2023-04-17T02:34:54.543Z,9.80
2023-04-17T02:37:41.981Z,9.70
2023-04-17T02:40:29.503Z,9.60
2023-04-17T02:43:17.264Z,9.60
2023-04-17T02:46:04.818Z,9.70
2023-04-17T02:48:52.307Z,9.70
2023-04-17T02:51:39.768Z,9.70
2023-04-17T02:54:27.187Z,9.70
2023-04-17T02:57:14.652Z,9.80
2023-04-17T03:00:02.291Z,9.70
2023-04-17T03:02:50.151Z,9.70
2023-04-17T03:05:37.660Z,9.50
2023-04-17T03:08:25.109Z,9.50
2023-04-17T03:11:12.696Z,9.50
2023-04-17T03:14:00.256Z,9.30
2023-04-17T03:16:47.839Z,9.40
2023-04-17T03:19:35.736Z,9.30
2023-04-17T03:22:23.233Z,9.30
2023-04-17T03:25:11.192Z,9.30
2023-04-17T03:27:58.689Z,9.30
2023-04-17T03:30:46.284Z,9.30
2023-04-17T03:33:33.757Z,9.30
2023-04-17T03:36:21.281Z,9.20
2023-04-17T03:39:08.752Z,9.10
2023-04-17T03:41:56.346Z,8.90
2023-04-17T03:44:43.766Z,8.90
2023-04-17T03:47:31.285Z,8.90
2023-04-17T03:50:18.823Z,9.00
2023-04-17T03:53:06.309Z,8.80
2023-04-17T03:55:53.815Z,8.70
2023-04-17T03:58:41.234Z,8.60
2023-04-17T04:01:28.746Z,8.60
2023-04-17T04:04:17.078Z,8.50
2023-04-17T04:07:04.748Z,8.50
2023-04-17T04:09:52.191Z,8.50
2023-04-17T04:12:39.633Z,8.50
2023-04-17T04:15:27.362Z,8.50
2023-04-17T04:18:14.787Z,8.40
2023-04-17T04:21:02.270Z,8.30
2023-04-17T04:23:49.891Z,8.30
2023-04-17T04:26:40.872Z,8.30
2023-04-17T04:29:28.388Z,8.50
2023-04-17T04:32:16.682Z,8.40
2023-04-17T04:35:04.789Z,8.30
2023-04-17T04:37:54.735Z,8.30
2023-04-17T04:40:43.902Z,8.20
2023-04-17T04:43:33.478Z,8.40
2023-04-17T04:46:20.974Z,8.50
2023-04-17T04:49:08.601Z,8.60
2023-04-17T04:51:56.666Z,8.80
2023-04-17T04:54:44.638Z,8.80
2023-04-17T04:57:32.134Z,8.90
2023-04-17T05:00:20.081Z,9.00
2023-04-17T05:03:08.014Z,9.00
2023-04-17T05:05:55.887Z,9.40
2023-04-17T05:08:43.369Z,10.10
2023-04-17T05:11:31.144Z,10.40
2023-04-17T05:14:18.621Z,11.00
2023-04-17T05:17:06.311Z,10.90
2023-04-17T05:19:53.784Z,10.70
2023-04-17T05:22:41.436Z,10.40
2023-04-17T05:25:29.086Z,10.20
2023-04-17T05:28:17.239Z,10.00
2023-04-17T05:31:05.094Z,10.00
2023-04-17T05:33:52.598Z,10.10
2023-04-17T05:36:40.059Z,10.10
2023-04-17T05:39:27.563Z,10.00
2023-04-17T05:42:15.000Z,10.00
2023-04-17T05:45:02.493Z,10.10
2023-04-17T05:47:50.654Z,9.80
2023-04-17T05:50:42.594Z,10.00
2023-04-17T05:53:33.357Z,10.20
2023-04-17T05:57:35.154Z,10.20
2023-04-17T06:00:23.241Z,10.50
2023-04-17T06:03:11.360Z,10.90
2023-04-17T06:05:59.597Z,11.00
2023-04-17T06:08:47.510Z,11.00
2023-04-17T06:11:35.349Z,11.00
2023-04-17T06:14:22.902Z,11.10
2023-04-17T06:17:12.415Z,11.30
2023-04-17T06:20:00.215Z,11.50
2023-04-17T06:22:47.874Z,11.50
2023-04-17T06:25:35.410Z,11.30
2023-04-17T06:28:22.893Z,11.20
2023-04-17T06:31:10.532Z,10.80
2023-04-17T06:33:58.083Z,10.80
2023-04-17T06:36:45.571Z,10.80
2023-04-17T06:39:34.130Z,11.00
2023-04-17T06:42:21.670Z,10.90
2023-04-17T06:45:09.448Z,10.80
2023-04-17T06:47:57.042Z,10.90
2023-04-17T06:50:45.091Z,10.70
2023-04-17T06:53:32.649Z,10.60
2023-04-17T06:56:20.991Z,10.50
2023-04-17T06:59:08.989Z,10.60
2023-04-17T07:01:56.679Z,10.80
2023-04-17T07:04:44.301Z,10.70
2023-04-17T07:07:34.040Z,10.70
2023-04-17T07:10:21.583Z,11.10
2023-04-17T07:13:09.051Z,11.30
2023-04-17T07:15:57.512Z,11.30
2023-04-17T07:18:45.058Z,11.60
2023-04-17T07:21:32.877Z,11.80
2023-04-17T07:24:20.373Z,11.60
2023-04-17T07:27:07.930Z,11.40
2023-04-17T07:29:56.057Z,11.50
2023-04-17T07:32:43.550Z,11.40
2023-04-17T07:35:31.136Z,11.50
2023-04-17T07:38:18.591Z,11.70
2023-04-17T07:41:06.080Z,11.50
2023-04-17T07:43:53.607Z,11.50
2023-04-17T07:46:41.520Z,11.40
2023-04-17T07:49:29.012Z,11.40
2023-04-17T07:52:18.331Z,11.30
2023-04-17T07:55:07.235Z,11.40
2023-04-17T07:57:55.032Z,11.60
2023-04-17T08:00:43.397Z,11.70
2023-04-17T08:03:31.933Z,11.60
2023-04-17T08:06:19.598Z,11.40
2023-04-17T08:09:07.300Z,11.40
2023-04-17T08:11:57.878Z,11.50
2023-04-17T08:14:45.878Z,11.60
2023-04-17T08:17:33.575Z,11.80
2023-04-17T08:20:21.997Z,11.80
2023-04-17T08:23:09.570Z,11.60
2023-04-17T08:25:57.046Z,11.70
2023-04-17T08:28:44.523Z,11.80
2023-04-17T08:31:32.177Z,11.60
2023-04-17T08:34:19.682Z,11.70
2023-04-17T08:37:07.289Z,11.80
2023-04-17T08:39:54.835Z,11.90
2023-04-17T08:42:43.515Z,12.00
2023-04-17T08:45:32.815Z,12.10
2023-04-17T08:48:24.303Z,12.40
2023-04-17T08:51:11.907Z,12.70
2023-04-17T08:53:59.516Z,12.70
2023-04-17T08:56:47.482Z,12.90
2023-04-17T08:59:34.984Z,12.90
2023-04-17T09:02:23.687Z,13.20
2023-04-17T09:05:21.118Z,13.10
2023-04-17T09:08:09.728Z,12.90
2023-04-17T09:10:57.297Z,12.60
2023-04-17T09:13:44.968Z,12.40
2023-04-17T09:16:32.731Z,12.50
2023-04-17T09:19:20.410Z,12.30
2023-04-17T09:22:18.520Z,11.80
2023-04-17T09:25:19.508Z,11.60
2023-04-17T09:28:14.039Z,11.20
2023-04-17T09:31:05.906Z,11.20
2023-04-17T09:33:58.861Z,11.30
2023-04-17T09:36:46.641Z,11.60
2023-04-17T09:39:34.242Z,12.40
2023-04-17T09:42:21.686Z,13.10
2023-04-17T09:45:19.746Z,13.80
2023-04-17T09:48:12.492Z,14.60
2023-04-17T09:51:00.141Z,14.70
2023-04-17T09:53:49.148Z,14.70
2023-04-17T09:56:38.072Z,15.30
2023-04-17T09:59:26.697Z,17.10
2023-04-17T10:02:16.455Z,18.40
2023-04-17T10:05:08.590Z,17.20
2023-04-17T10:07:56.771Z,16.50
2023-04-17T10:10:46.492Z,16.00
2023-04-17T10:13:38.653Z,15.70
2023-04-17T10:16:37.184Z,15.50
2023-04-17T10:19:32.485Z,15.30
2023-04-17T10:22:19.951Z,14.90
2023-04-17T10:25:13.270Z,15.20
2023-04-17T10:28:02.179Z,15.10
2023-04-17T10:30:56.892Z,14.50
2023-04-17T10:33:51.649Z,14.20
2023-04-17T10:36:39.053Z,14.10
2023-04-17T10:39:26.508Z,13.80
2023-04-17T10:42:21.811Z,13.40
2023-04-17T10:45:19.313Z,13.30
2023-04-17T10:48:06.920Z,13.20
2023-04-17T10:50:58.124Z,13.20
2023-04-17T10:53:46.365Z,13.30
2023-04-17T10:56:39.522Z,13.60
2023-04-17T10:59:30.321Z,14.10
2023-04-17T11:02:33.127Z,14.70
2023-04-17T11:05:21.333Z,15.60
2023-04-17T11:08:10.043Z,16.70
2023-04-17T11:10:57.640Z,16.90
2023-04-17T11:13:48.882Z,16.40
2023-04-17T11:16:41.910Z,16.00
2023-04-17T11:19:29.744Z,15.60
2023-04-17T11:22:19.295Z,14.80
2023-04-17T11:25:07.220Z,15.10
2023-04-17T11:27:59.599Z,15.40
2023-04-17T11:30:47.254Z,15.60
2023-04-17T11:33:38.191Z,15.60
2023-04-17T11:36:26.226Z,15.20
2023-04-17T11:39:15.739Z,15.10
2023-04-17T11:42:03.751Z,14.90
2023-04-17T11:44:51.255Z,14.60
2023-04-17T11:47:38.783Z,14.70
2023-04-17T11:50:30.840Z,14.50
2023-04-17T11:53:18.292Z,14.20
2023-04-17T11:56:15.630Z,13.90
2023-04-17T11:59:04.978Z,14.00
2023-04-17T12:01:53.146Z,13.90
2023-04-17T12:04:41.225Z,13.90
2023-04-17T12:07:28.794Z,13.80
2023-04-17T12:10:16.220Z,13.50
2023-04-17T12:13:03.743Z,13.30
2023-04-17T12:15:51.293Z,13.10
2023-04-17T12:18:38.859Z,13.10
2023-04-17T12:21:26.293Z,13.40
2023-04-17T12:24:14.465Z,13.50
2023-04-17T12:27:02.411Z,13.60
2023-04-17T12:29:49.936Z,13.60
2023-04-17T12:32:39.480Z,13.40
2023-04-17T12:35:27.697Z,13.30
2023-04-17T12:38:15.175Z,13.10
2023-04-17T12:41:02.646Z,13.20
2023-04-17T12:43:50.130Z,13.20
2023-04-17T12:46:37.667Z,13.30
2023-04-17T12:49:25.375Z,13.70
2023-04-17T12:52:12.863Z,14.00
2023-04-17T12:55:01.077Z,14.40
2023-04-17T12:57:48.553Z,14.40
2023-04-17T13:00:36.233Z,14.80
2023-04-17T13:03:23.822Z,15.20
2023-04-17T13:06:11.608Z,15.40
2023-04-17T13:08:59.012Z,15.10
2023-04-17T13:11:46.544Z,14.60
2023-04-17T13:14:34.173Z,14.40
2023-04-17T13:17:22.153Z,14.30
2023-04-17T13:20:10.350Z,14.20
2023-04-17T13:22:58.986Z,14.10
2023-04-17T13:25:47.341Z,14.00
2023-04-17T13:28:34.775Z,13.80
2023-04-17T13:31:24.511Z,13.70
2023-04-17T13:34:12.116Z,13.70
2023-04-17T13:36:59.655Z,13.80
2023-04-17T13:39:47.216Z,14.10
2023-04-17T13:42:34.788Z,14.10
2023-04-17T13:45:22.360Z,14.10
2023-04-17T13:48:11.596Z,14.20
2023-04-17T13:50:59.072Z,14.20
2023-04-17T13:53:46.642Z,13.90
2023-04-17T13:56:34.097Z,13.50
2023-04-17T13:59:21.545Z,13.70
2023-04-17T14:02:09.266Z,13.70
2023-04-17T14:04:56.983Z,14.30
2023-04-17T14:07:44.688Z,14.50
2023-04-17T14:10:32.152Z,14.80
2023-04-17T14:13:19.640Z,15.00
2023-04-17T14:16:07.402Z,15.10
2023-04-17T14:18:55.154Z,15.00
2023-04-17T14:21:44.315Z,14.90
2023-04-17T14:24:31.927Z,14.90
2023-04-17T14:27:19.385Z,14.80
2023-04-17T14:30:08.377Z,15.00
2023-04-17T14:32:55.988Z,14.90
2023-04-17T14:35:43.649Z,14.50
2023-04-17T14:38:31.170Z,14.60
2023-04-17T14:41:18.698Z,14.50
2023-04-17T14:44:06.531Z,14.50
2023-04-17T14:46:54.118Z,14.70
2023-04-17T14:49:41.599Z,15.00
2023-04-17T14:52:28.992Z,15.00
2023-04-17T14:55:16.608Z,14.90
2023-04-17T14:58:04.068Z,15.10
2023-04-17T15:00:51.568Z,15.30
2023-04-17T15:03:39.469Z,15.50
2023-04-17T15:06:27.190Z,15.80
2023-04-17T15:09:15.082Z,16.60
2023-04-17T15:12:02.937Z,16.60
2023-04-17T15:14:50.463Z,16.20
2023-04-17T15:17:38.062Z,15.50
2023-04-17T15:20:25.729Z,15.30
2023-04-17T15:23:13.280Z,14.90
2023-04-17T15:26:01.355Z,14.90
2023-04-17T15:28:49.003Z,14.70
2023-04-17T15:31:37.427Z,14.70
2023-04-17T15:34:25.137Z,14.60
2023-04-17T15:37:12.594Z,14.60
2023-04-17T15:40:00.245Z,14.60
2023-04-17T15:42:47.782Z,14.60
2023-04-17T15:45:35.612Z,14.60
2023-04-17T15:48:23.230Z,14.70
2023-04-17T15:51:10.678Z,14.60
2023-04-17T15:53:58.138Z,14.60
2023-04-17T15:56:45.627Z,15.00
2023-04-17T15:59:33.223Z,15.30
2023-04-17T16:02:20.975Z,15.60
2023-04-17T16:05:08.823Z,16.00
2023-04-17T16:07:56.247Z,16.20
2023-04-17T16:10:43.708Z,15.90
2023-04-17T16:13:31.170Z,15.60
2023-04-17T16:16:18.703Z,15.50
2023-04-17T16:19:07.304Z,15.70
2023-04-17T16:21:56.702Z,15.40
2023-04-17T16:24:44.156Z,15.10
2023-04-17T16:27:33.118Z,15.00
2023-04-17T16:30:21.441Z,14.70
2023-04-17T16:33:09.219Z,14.40
2023-04-17T16:35:57.362Z,14.30
2023-04-17T16:38:46.057Z,14.10
2023-04-17T16:41:33.580Z,14.20
2023-04-17T16:44:21.456Z,14.10
2023-04-17T16:47:13.765Z,14.20
2023-04-17T16:50:01.980Z,14.10
2023-04-17T16:52:50.383Z,14.10
2023-04-17T16:55:37.837Z,14.20
2023-04-17T16:58:25.714Z,14.30
2023-04-17T17:01:13.588Z,14.10
2023-04-17T17:04:01.218Z,14.20
2023-04-17T17:06:48.781Z,14.30
2023-04-17T17:09:36.297Z,14.40
2023-04-17T17:12:24.170Z,14.30
2023-04-17T17:15:11.874Z,14.30
2023-04-17T17:17:59.369Z,14.20
2023-04-17T17:20:48.985Z,14.10
2023-04-17T17:23:37.918Z,14.10
2023-04-17T17:26:25.825Z,14.10
2023-04-17T17:29:13.563Z,14.00
2023-04-17T17:32:01.238Z,13.90
2023-04-17T17:34:48.794Z,13.60
2023-04-17T17:37:36.372Z,13.60
2023-04-17T17:40:23.867Z,13.60
2023-04-17T17:43:12.293Z,13.30
2023-04-17T17:45:59.814Z,13.20
2023-04-17T17:48:47.695Z,13.20
2023-04-17T17:51:35.251Z,13.10
2023-04-17T17:54:22.774Z,13.20
2023-04-17T17:57:10.510Z,13.10
2023-04-17T17:59:58.256Z,13.10
2023-04-17T18:02:46.140Z,13.00
2023-04-17T18:05:33.722Z,12.90
2023-04-17T18:08:21.260Z,12.80
2023-04-17T18:11:08.973Z,12.80
2023-04-17T18:13:57.261Z,12.90
2023-04-17T18:16:44.686Z,13.00
2023-04-17T18:19:32.764Z,12.90
2023-04-17T18:22:21.458Z,13.00
2023-04-17T18:25:09.488Z,13.00
2023-04-17T18:27:57.102Z,12.70
2023-04-17T18:30:44.538Z,12.60
2023-04-17T18:33:32.069Z,12.60
2023-04-17T18:36:19.556Z,12.50
2023-04-17T18:39:06.986Z,12.40
2023-04-17T18:41:54.486Z,12.30
2023-04-17T18:44:41.963Z,12.30
2023-04-17T18:47:29.994Z,12.10
2023-04-17T18:50:17.518Z,12.10
2023-04-17T18:53:04.999Z,12.10
2023-04-17T18:55:52.717Z,12.10
2023-04-17T18:58:40.515Z,12.10
2023-04-17T19:01:28.041Z,12.00
2023-04-17T19:04:19.336Z,12.00
2023-04-17T19:07:06.835Z,12.00
2023-04-17T19:09:54.278Z,11.90
2023-04-17T19:12:43.128Z,11.90
2023-04-17T19:15:30.647Z,11.90
2023-04-17T19:18:18.117Z,11.90
2023-04-17T19:21:05.601Z,11.90
2023-04-17T19:23:53.134Z,11.90
2023-04-17T19:26:41.230Z,11.80
2023-04-17T19:29:28.748Z,11.70
2023-04-17T19:32:16.906Z,11.60
2023-04-17T19:35:04.821Z,11.50
2023-04-17T19:37:52.287Z,11.40
2023-04-17T19:40:39.819Z,11.40
2023-04-17T19:43:27.306Z,11.40
2023-04-17T19:46:15.629Z,11.40
2023-04-17T19:49:03.374Z,11.20
2023-04-17T19:51:50.871Z,11.20
2023-04-17T19:54:38.988Z,11.20
2023-04-17T19:57:26.743Z,11.10
2023-04-17T20:00:14.719Z,11.10
2023-04-17T20:03:02.342Z,11.20
2023-04-17T20:05:50.066Z,11.10
2023-04-17T20:08:37.507Z,11.10
2023-04-17T20:11:25.266Z,10.90
2023-04-17T20:14:14.742Z,10.60
2023-04-17T20:17:02.320Z,10.40
2023-04-17T20:19:49.893Z,10.30
2023-04-17T20:22:39.524Z,10.20
2023-04-17T20:25:27.122Z,10.20
2023-04-17T20:28:14.626Z,10.10
2023-04-17T20:31:03.570Z,10.00
2023-04-17T20:33:51.078Z,10.00
2023-04-17T20:36:38.603Z,10.10
2023-04-17T20:39:26.268Z,10.00
2023-04-17T20:42:13.641Z,9.80
2023-04-17T20:45:01.096Z,9.80
2023-04-17T20:50:39.887Z,9.80
2023-04-17T20:53:27.385Z,9.80
2023-04-17T20:56:14.926Z,9.90
2023-04-17T20:59:02.345Z,9.80
2023-04-17T21:01:51.703Z,9.70
2023-04-17T21:04:39.412Z,9.70
2023-04-17T21:07:26.862Z,9.70
2023-04-17T21:10:14.347Z,9.70
2023-04-17T21:13:02.160Z,9.70
2023-04-17T21:15:49.715Z,9.60
2023-04-17T21:18:37.558Z,9.60
2023-04-17T21:21:25.014Z,9.60
2023-04-17T21:24:12.709Z,9.60
2023-04-17T21:27:01.279Z,9.70
2023-04-17T21:29:49.121Z,9.60
2023-04-17T21:32:37.114Z,9.50
2023-04-17T21:35:24.623Z,9.40
2023-04-17T21:38:12.612Z,9.40
2023-04-17T21:41:00.173Z,9.50
2023-04-17T21:43:47.730Z,9.50
2023-04-17T21:46:35.147Z,9.50
2023-04-17T21:49:23.673Z,9.40
2023-04-17T21:52:11.218Z,9.50
2023-04-17T21:55:03.272Z,9.40
2023-04-17T21:57:50.972Z,9.20
2023-04-17T22:00:38.468Z,9.20
2023-04-17T22:03:26.081Z,9.10
2023-04-17T22:06:14.183Z,9.10
2023-04-17T22:09:01.825Z,9.10
2023-04-17T22:11:49.838Z,9.10
2023-04-17T22:14:37.353Z,9.00
2023-04-17T22:17:24.979Z,9.10
2023-04-17T22:20:12.858Z,9.10
2023-04-17T22:23:00.245Z,9.10
2023-04-17T22:25:47.761Z,9.10
2023-04-17T22:28:35.219Z,9.10
2023-04-17T22:31:22.699Z,9.10
2023-04-17T22:34:10.330Z,9.10
2023-04-17T22:36:58.113Z,9.10
2023-04-17T22:39:45.680Z,9.00
2023-04-17T22:42:33.105Z,9.00
2023-04-17T22:45:20.690Z,8.90
2023-04-17T22:48:08.190Z,9.00
2023-04-17T22:50:56.427Z,8.90
2023-04-17T22:53:44.011Z,8.70
2023-04-17T22:56:31.479Z,8.80
2023-04-17T22:59:18.902Z,8.60
2023-04-17T23:02:06.350Z,8.50
2023-04-17T23:04:53.836Z,8.50
2023-04-17T23:07:41.297Z,8.40
2023-04-17T23:10:28.792Z,8.40
2023-04-17T23:13:16.414Z,8.40
2023-04-17T23:16:04.351Z,8.40
2023-04-17T23:18:51.971Z,8.50
2023-04-17T23:21:39.423Z,8.30
2023-04-17T23:24:26.846Z,8.20
2023-04-17T23:27:14.287Z,8.20
2023-04-17T23:30:02.200Z,8.20
2023-04-17T23:32:51.962Z,8.20
2023-04-17T23:35:39.453Z,8.10
2023-04-17T23:38:27.100Z,8.20
2023-04-17T23:41:14.584Z,8.20
2023-04-17T23:44:03.714Z,8.30
2023-04-17T23:46:51.430Z,8.10
2023-04-17T23:49:38.967Z,8.20
2023-04-17T23:52:27.863Z,8.10
2023-04-17T23:55:15.566Z,8.10
2023-04-17T23:58:03.252Z,8.10
